createdAt,value
2023-05-24T00:00:24.821Z,86.00
2023-05-24T00:01:29.433Z,85.90
2023-05-24T00:02:33.417Z,86.00
2023-05-24T00:03:37.836Z,85.99
2023-05-24T00:04:42.190Z,86.01
2023-05-24T00:05:46.316Z,86.04
2023-05-24T00:06:50.627Z,86.06
2023-05-24T00:07:54.917Z,86.07
2023-05-24T00:08:59.277Z,86.02
2023-05-24T00:10:03.514Z,86.00
2023-05-24T00:11:07.900Z,86.00
2023-05-24T00:12:12.192Z,86.02
2023-05-24T00:13:19.492Z,86.03
2023-05-24T00:14:22.954Z,86.03
2023-05-24T00:15:27.227Z,86.05
2023-05-24T00:16:31.633Z,86.16
2023-05-24T00:17:35.799Z,86.21
2023-05-24T00:18:40.178Z,86.23
2023-05-24T00:19:44.601Z,86.26
2023-05-24T00:20:48.919Z,86.26
2023-05-24T00:21:53.194Z,86.31
2023-05-24T00:22:57.580Z,86.38
2023-05-24T00:24:01.946Z,86.40
2023-05-24T00:25:06.310Z,86.40
2023-05-24T00:26:10.621Z,86.39
2023-05-24T00:27:14.886Z,86.46
2023-05-24T00:28:19.187Z,86.44
2023-05-24T00:29:23.442Z,86.50
2023-05-24T00:30:27.749Z,86.47
2023-05-24T00:31:32.189Z,86.46
2023-05-24T00:32:36.517Z,86.47
2023-05-24T00:33:40.857Z,86.48
2023-05-24T00:34:45.084Z,86.50
2023-05-24T00:35:49.391Z,86.52
2023-05-24T00:36:53.777Z,86.54
2023-05-24T00:37:58.073Z,86.53
2023-05-24T00:39:02.333Z,86.51
2023-05-24T00:40:06.652Z,86.50
2023-05-24T00:41:10.933Z,86.50
2023-05-24T00:42:15.302Z,86.50
2023-05-24T00:43:19.605Z,86.53
2023-05-24T00:44:23.941Z,86.49
2023-05-24T00:45:28.225Z,86.46
2023-05-24T00:46:32.620Z,86.47
2023-05-24T00:47:36.824Z,86.50
2023-05-24T00:48:41.123Z,86.53
2023-05-24T00:49:45.432Z,86.75
2023-05-24T00:50:49.808Z,86.82
2023-05-24T00:51:54.028Z,86.97
2023-05-24T00:52:58.421Z,87.15
2023-05-24T00:54:02.685Z,87.24
2023-05-24T00:55:07.046Z,87.38
2023-05-24T00:56:11.315Z,87.51
2023-05-24T00:57:15.705Z,87.66
2023-05-24T00:58:20.024Z,87.86
2023-05-24T00:59:24.283Z,88.02
2023-05-24T01:00:28.694Z,88.24
2023-05-24T01:01:33.034Z,88.41
2023-05-24T01:02:37.441Z,88.54
2023-05-24T01:03:42.029Z,88.68
2023-05-24T01:04:45.988Z,88.89
2023-05-24T01:05:50.325Z,88.91
2023-05-24T01:06:54.636Z,88.98
2023-05-24T01:08:04.958Z,89.10
2023-05-24T01:09:07.856Z,89.04
2023-05-24T01:10:26.153Z,88.97
2023-05-24T01:11:29.430Z,88.88
2023-05-24T01:12:33.757Z,88.83
2023-05-24T01:13:37.968Z,88.74
2023-05-24T01:14:42.330Z,88.67
2023-05-24T01:15:46.608Z,88.60
2023-05-24T01:16:50.879Z,88.62
2023-05-24T01:17:55.236Z,88.69
2023-05-24T01:18:59.545Z,88.81
2023-05-24T01:20:03.858Z,88.82
2023-05-24T01:21:08.098Z,88.95
2023-05-24T01:22:12.428Z,89.12
2023-05-24T01:23:16.812Z,89.39
2023-05-24T01:24:21.162Z,89.74
2023-05-24T01:25:25.482Z,90.14
2023-05-24T01:26:29.761Z,90.46
2023-05-24T01:27:34.123Z,90.42
2023-05-24T01:28:38.502Z,90.40
2023-05-24T01:29:42.774Z,90.50
2023-05-24T01:30:47.189Z,90.86
2023-05-24T01:31:51.497Z,91.13
2023-05-24T01:32:55.852Z,91.22
2023-05-24T01:34:00.104Z,91.20
2023-05-24T01:35:04.377Z,91.09
2023-05-24T01:36:08.752Z,91.00
2023-05-24T01:37:13.054Z,91.06
2023-05-24T01:38:17.266Z,91.09
2023-05-24T01:39:21.563Z,91.19
2023-05-24T01:40:25.910Z,91.49
2023-05-24T01:41:30.141Z,91.51
2023-05-24T01:42:34.434Z,91.40
2023-05-24T01:43:38.876Z,91.33
2023-05-24T01:44:43.246Z,91.27
2023-05-24T01:45:47.633Z,91.19
2023-05-24T01:46:51.921Z,91.10
2023-05-24T01:47:56.199Z,91.09
2023-05-24T01:49:00.592Z,91.03
2023-05-24T01:50:04.842Z,90.96
2023-05-24T01:51:09.163Z,90.92
2023-05-24T01:52:13.487Z,90.88
2023-05-24T01:53:17.787Z,90.80
2023-05-24T01:54:22.096Z,90.89
2023-05-24T01:55:26.471Z,90.91
2023-05-24T01:56:30.722Z,90.90
2023-05-24T01:57:35.016Z,90.87
2023-05-24T01:58:39.349Z,90.88
2023-05-24T01:59:43.623Z,90.85
2023-05-24T02:00:47.986Z,90.78
2023-05-24T02:01:52.315Z,90.74
2023-05-24T02:02:56.734Z,90.72
2023-05-24T02:04:00.964Z,90.68
2023-05-24T02:05:05.374Z,90.80
2023-05-24T02:06:09.608Z,90.79
2023-05-24T02:07:14.012Z,90.82
2023-05-24T02:08:18.259Z,90.88
2023-05-24T02:09:22.550Z,91.20
2023-05-24T02:10:26.911Z,91.23
2023-05-24T02:11:31.154Z,91.43
2023-05-24T02:12:35.475Z,91.47
2023-05-24T02:13:39.734Z,91.50
2023-05-24T02:14:44.041Z,91.42
2023-05-24T02:15:48.423Z,91.46
2023-05-24T02:16:52.757Z,91.46
2023-05-24T02:17:57.089Z,91.53
2023-05-24T02:19:01.275Z,91.74
2023-05-24T02:20:05.685Z,91.92
2023-05-24T02:21:09.991Z,91.98
2023-05-24T02:22:14.256Z,91.96
2023-05-24T02:23:18.632Z,92.02
2023-05-24T02:24:22.972Z,92.01
2023-05-24T02:25:27.252Z,92.16
2023-05-24T02:26:31.464Z,92.14
2023-05-24T02:27:35.776Z,92.23
2023-05-24T02:28:40.112Z,92.34
2023-05-24T02:29:44.382Z,92.51
2023-05-24T02:30:48.723Z,92.75
2023-05-24T02:31:52.941Z,92.78
2023-05-24T02:32:57.386Z,92.80
2023-05-24T02:34:01.610Z,92.75
2023-05-24T02:35:05.874Z,92.72
2023-05-24T02:36:10.162Z,92.69
2023-05-24T02:37:17.480Z,92.73
2023-05-24T02:38:20.872Z,92.80
2023-05-24T02:39:25.186Z,93.02
2023-05-24T02:40:29.436Z,93.22
2023-05-24T02:41:33.833Z,93.25
2023-05-24T02:42:38.065Z,93.47
2023-05-24T02:43:42.468Z,93.59
2023-05-24T02:44:46.826Z,93.69
2023-05-24T02:45:51.088Z,93.69
2023-05-24T02:46:55.483Z,93.75
2023-05-24T02:47:59.833Z,93.69
2023-05-24T02:49:04.059Z,93.72
2023-05-24T02:50:08.458Z,93.84
2023-05-24T02:51:26.826Z,94.14
2023-05-24T02:52:30.147Z,94.23
2023-05-24T02:53:34.328Z,94.28
2023-05-24T02:54:38.669Z,94.31
2023-05-24T02:55:42.998Z,94.48
2023-05-24T02:56:47.333Z,94.59
2023-05-24T02:57:51.555Z,94.56
2023-05-24T02:58:55.844Z,94.56
2023-05-24T03:00:00.167Z,94.73
2023-05-24T03:01:04.493Z,95.00
2023-05-24T03:02:08.787Z,95.22
2023-05-24T03:03:13.250Z,95.19
2023-05-24T03:04:17.430Z,95.15
2023-05-24T03:05:21.712Z,95.09
2023-05-24T03:06:26.129Z,95.11
2023-05-24T03:07:30.425Z,95.03
2023-05-24T03:08:34.775Z,94.94
2023-05-24T03:09:39.073Z,95.08
2023-05-24T03:10:43.575Z,95.08
2023-05-24T03:11:47.685Z,95.03
2023-05-24T03:12:52.025Z,94.98
2023-05-24T03:13:56.231Z,95.00
2023-05-24T03:15:00.584Z,95.18
2023-05-24T03:16:04.897Z,95.23
2023-05-24T03:17:09.125Z,95.21
2023-05-24T03:18:13.426Z,95.23
2023-05-24T03:19:17.747Z,95.18
2023-05-24T03:20:22.182Z,95.17
2023-05-24T03:21:26.416Z,95.17
2023-05-24T03:22:33.747Z,95.14
2023-05-24T03:23:37.121Z,95.12
2023-05-24T03:24:41.466Z,95.08
2023-05-24T03:25:45.779Z,95.22
2023-05-24T03:26:50.095Z,95.25
2023-05-24T03:27:54.442Z,95.30
2023-05-24T03:28:58.749Z,95.41
2023-05-24T03:30:03.093Z,95.42
2023-05-24T03:31:07.417Z,95.43
2023-05-24T03:32:11.673Z,95.47
2023-05-24T03:33:15.942Z,95.53
2023-05-24T03:34:20.246Z,95.61
2023-05-24T03:35:24.607Z,95.60
2023-05-24T03:36:28.902Z,95.57
2023-05-24T03:37:33.159Z,95.59
2023-05-24T03:38:37.507Z,95.69
2023-05-24T03:39:41.832Z,95.89
2023-05-24T03:40:46.035Z,96.06
2023-05-24T03:41:50.347Z,96.20
2023-05-24T03:42:54.702Z,96.40
2023-05-24T03:43:58.947Z,96.49
2023-05-24T03:45:03.317Z,96.52
2023-05-24T03:46:07.607Z,96.44
2023-05-24T03:47:11.908Z,96.39
2023-05-24T03:48:16.250Z,96.42
2023-05-24T03:49:20.548Z,96.43
2023-05-24T03:50:24.829Z,96.45
2023-05-24T03:51:29.069Z,96.41
2023-05-24T03:52:33.367Z,96.33
2023-05-24T03:53:37.712Z,96.28
2023-05-24T03:54:41.949Z,96.36
2023-05-24T03:55:46.351Z,96.45
2023-05-24T03:56:50.562Z,96.44
2023-05-24T03:57:54.835Z,96.45
2023-05-24T03:58:59.199Z,96.41
2023-05-24T04:00:03.465Z,96.38
2023-05-24T04:01:07.865Z,96.34
2023-05-24T04:02:12.089Z,96.42
2023-05-24T04:03:16.481Z,96.41
2023-05-24T04:04:20.797Z,96.42
2023-05-24T04:05:25.022Z,96.45
2023-05-24T04:06:29.513Z,96.46
2023-05-24T04:07:33.669Z,96.64
2023-05-24T04:08:38.047Z,96.96
2023-05-24T04:09:42.458Z,97.23
2023-05-24T04:10:46.683Z,97.47
2023-05-24T04:11:50.956Z,97.46
2023-05-24T04:12:55.248Z,97.43
2023-05-24T04:13:59.516Z,97.53
2023-05-24T04:15:03.829Z,97.58
2023-05-24T04:16:08.133Z,97.53
2023-05-24T04:17:12.693Z,97.64
2023-05-24T04:18:16.919Z,97.72
2023-05-24T04:19:21.046Z,97.84
2023-05-24T04:20:25.544Z,97.84
2023-05-24T04:21:29.575Z,97.87
2023-05-24T04:22:33.882Z,97.87
2023-05-24T04:23:38.159Z,97.81
2023-05-24T04:24:42.454Z,97.74
2023-05-24T04:25:46.799Z,97.71
2023-05-24T04:26:51.077Z,97.69
2023-05-24T04:27:55.384Z,97.63
2023-05-24T04:28:59.760Z,97.57
2023-05-24T04:30:04.078Z,97.58
2023-05-24T04:31:08.348Z,97.61
2023-05-24T04:32:12.622Z,97.69
2023-05-24T04:33:17.158Z,97.68
2023-05-24T04:34:21.354Z,97.65
2023-05-24T04:35:25.714Z,97.63
2023-05-24T04:36:30.020Z,97.57
2023-05-24T04:37:34.299Z,97.50
2023-05-24T04:38:38.680Z,97.53
2023-05-24T04:39:43.008Z,97.52
2023-05-24T04:40:47.355Z,97.64
2023-05-24T04:41:51.688Z,97.67
2023-05-24T04:42:55.932Z,97.83
2023-05-24T04:44:00.213Z,97.96
2023-05-24T04:45:04.496Z,97.98
2023-05-24T04:46:09.452Z,97.98
2023-05-24T04:47:27.201Z,97.98
2023-05-24T04:48:30.373Z,98.02
2023-05-24T04:49:40.634Z,98.09
2023-05-24T04:50:43.922Z,98.07
2023-05-24T04:51:47.822Z,98.02
2023-05-24T04:52:52.155Z,97.98
2023-05-24T04:53:56.447Z,97.99
2023-05-24T04:55:00.847Z,97.93
2023-05-24T04:56:05.041Z,97.79
2023-05-24T04:57:09.447Z,97.84
2023-05-24T04:58:13.962Z,97.97
2023-05-24T04:59:18.069Z,98.11
2023-05-24T05:00:22.465Z,98.23
2023-05-24T05:01:26.771Z,98.25
2023-05-24T05:02:31.192Z,98.23
2023-05-24T05:03:35.473Z,98.29
2023-05-24T05:04:39.732Z,98.27
2023-05-24T05:05:58.107Z,98.27
2023-05-24T05:07:01.168Z,98.35
2023-05-24T05:08:05.398Z,98.41
2023-05-24T05:09:09.843Z,98.50
2023-05-24T05:10:14.136Z,98.56
2023-05-24T05:11:18.406Z,98.55
2023-05-24T05:12:22.766Z,98.48
2023-05-24T05:13:27.005Z,98.44
2023-05-24T05:14:45.346Z,98.42
2023-05-24T05:15:48.514Z,98.33
2023-05-24T05:16:52.827Z,98.22
2023-05-24T05:17:57.163Z,98.16
2023-05-24T05:19:01.407Z,98.20
2023-05-24T05:20:05.764Z,98.18
2023-05-24T05:21:10.022Z,98.20
2023-05-24T05:22:14.316Z,98.30
2023-05-24T05:23:18.594Z,98.29
2023-05-24T05:24:23.011Z,98.27
2023-05-24T05:25:27.300Z,98.25
2023-05-24T05:26:45.628Z,98.13
2023-05-24T05:27:48.868Z,97.99
2023-05-24T05:28:53.131Z,97.89
2023-05-24T05:29:57.539Z,97.80
2023-05-24T05:31:01.816Z,97.77
2023-05-24T05:32:06.232Z,97.75
2023-05-24T05:33:10.680Z,97.75
2023-05-24T05:34:14.818Z,97.71
2023-05-24T05:35:19.188Z,97.62
2023-05-24T05:36:23.569Z,97.68
2023-05-24T05:37:30.847Z,97.62
2023-05-24T05:38:34.299Z,97.56
2023-05-24T05:39:38.597Z,97.50
2023-05-24T05:40:43.091Z,97.44
2023-05-24T05:41:47.223Z,97.42
2023-05-24T05:42:51.569Z,97.33
2023-05-24T05:43:55.873Z,97.28
2023-05-24T05:45:00.233Z,97.21
2023-05-24T05:46:04.548Z,97.16
2023-05-24T05:47:08.785Z,97.16
2023-05-24T05:48:13.098Z,97.19
2023-05-24T05:49:17.442Z,97.25
2023-05-24T05:50:21.710Z,97.32
2023-05-24T05:51:26.030Z,97.46
2023-05-24T05:52:30.445Z,97.54
2023-05-24T05:55:01.748Z,97.64
2023-05-24T05:56:06.043Z,97.69
2023-05-24T05:57:10.324Z,97.72
2023-05-24T05:58:14.689Z,97.76
2023-05-24T05:59:18.868Z,97.84
2023-05-24T06:00:23.273Z,97.99
2023-05-24T06:01:27.646Z,98.09
2023-05-24T06:02:32.010Z,98.12
2023-05-24T06:03:36.547Z,98.04
2023-05-24T06:04:40.647Z,97.96
2023-05-24T06:05:44.901Z,97.89
2023-05-24T06:06:49.224Z,97.68
2023-05-24T06:07:53.611Z,97.52
2023-05-24T06:08:57.997Z,97.41
2023-05-24T06:10:02.294Z,97.32
2023-05-24T06:11:06.567Z,97.25
2023-05-24T06:12:10.905Z,97.14
2023-05-24T06:13:15.301Z,97.01
2023-05-24T06:14:19.864Z,96.91
2023-05-24T06:15:24.064Z,96.83
2023-05-24T06:16:28.487Z,96.75
2023-05-24T06:17:32.795Z,96.67
2023-05-24T06:18:37.055Z,96.60
2023-05-24T06:19:41.490Z,96.66
2023-05-24T06:20:46.198Z,96.61
2023-05-24T06:21:56.293Z,96.57
2023-05-24T06:23:02.289Z,96.53
2023-05-24T06:24:05.658Z,96.50
2023-05-24T06:25:10.006Z,96.50
2023-05-24T06:26:28.339Z,96.52
2023-05-24T06:27:31.497Z,96.52
2023-05-24T06:28:35.800Z,96.52
2023-05-24T06:29:40.083Z,96.56
2023-05-24T06:30:44.682Z,96.64
2023-05-24T06:31:48.775Z,96.69
2023-05-24T06:32:52.977Z,96.72
2023-05-24T06:35:01.606Z,96.78
2023-05-24T06:36:05.962Z,96.84
2023-05-24T06:37:10.255Z,97.03
2023-05-24T06:38:14.673Z,97.21
2023-05-24T06:39:19.020Z,97.31
2023-05-24T06:40:23.342Z,97.42
2023-05-24T06:41:27.694Z,97.50
2023-05-24T06:42:32.106Z,97.61
2023-05-24T06:43:36.394Z,97.60
2023-05-24T06:44:40.811Z,97.52
2023-05-24T06:45:45.105Z,97.41
2023-05-24T06:46:49.471Z,97.29
2023-05-24T06:47:53.842Z,97.35
2023-05-24T06:48:58.152Z,97.46
2023-05-24T06:50:02.518Z,97.61
2023-05-24T06:51:06.832Z,97.61
2023-05-24T06:52:11.362Z,97.49
2023-05-24T06:53:15.611Z,97.04
2023-05-24T06:54:20.001Z,96.97
2023-05-24T06:55:24.375Z,96.77
2023-05-24T06:56:28.839Z,96.34
2023-05-24T06:57:33.199Z,96.04
2023-05-24T06:58:37.470Z,95.66
2023-05-24T06:59:47.907Z,95.53
2023-05-24T07:00:50.907Z,95.49
2023-05-24T07:01:55.126Z,95.23
2023-05-24T07:02:59.494Z,95.07
2023-05-24T07:04:03.882Z,95.03
2023-05-24T07:05:08.141Z,94.81
2023-05-24T07:06:18.500Z,94.49
2023-05-24T07:07:21.679Z,94.23
2023-05-24T07:08:25.859Z,93.87
2023-05-24T07:09:30.295Z,93.62
2023-05-24T07:10:34.653Z,93.51
2023-05-24T07:11:39.064Z,93.31
2023-05-24T07:12:43.287Z,92.91
2023-05-24T07:13:47.691Z,92.01
2023-05-24T07:14:52.009Z,91.86
2023-05-24T07:15:56.450Z,92.00
2023-05-24T07:17:06.861Z,92.09
2023-05-24T07:18:09.917Z,92.04
2023-05-24T07:19:14.133Z,91.11
2023-05-24T07:20:18.479Z,90.62
2023-05-24T07:21:36.885Z,90.48
2023-05-24T07:22:40.003Z,90.49
2023-05-24T07:23:44.351Z,90.51
2023-05-24T07:24:48.614Z,90.61
2023-05-24T07:25:52.926Z,90.76
2023-05-24T07:26:57.246Z,90.91
2023-05-24T07:28:01.595Z,91.11
2023-05-24T07:29:05.967Z,90.89
2023-05-24T07:30:19.650Z,90.68
2023-05-24T07:31:14.838Z,89.92
2023-05-24T07:32:19.149Z,89.61
2023-05-24T07:33:23.640Z,89.90
2023-05-24T07:34:27.852Z,90.23
2023-05-24T07:35:32.193Z,90.21
2023-05-24T07:36:36.660Z,90.16
2023-05-24T07:37:40.925Z,89.76
2023-05-24T07:38:45.533Z,89.40
2023-05-24T07:39:49.745Z,89.37
2023-05-24T07:40:54.018Z,89.30
2023-05-24T07:42:12.510Z,88.96
2023-05-24T07:43:15.771Z,88.73
2023-05-24T07:44:20.122Z,88.61
2023-05-24T07:45:24.493Z,88.83
2023-05-24T07:46:28.866Z,88.89
2023-05-24T07:47:33.261Z,89.22
2023-05-24T07:48:37.579Z,89.22
2023-05-24T07:49:42.061Z,88.99
2023-05-24T07:50:46.401Z,88.91
2023-05-24T07:51:50.833Z,89.01
2023-05-24T07:53:08.169Z,88.70
2023-05-24T07:54:10.853Z,89.07
2023-05-24T07:55:15.030Z,89.44
2023-05-24T07:56:19.374Z,89.72
2023-05-24T07:57:23.775Z,89.86
2023-05-24T07:58:28.047Z,89.81
2023-05-24T07:59:32.442Z,89.58
2023-05-24T08:00:36.817Z,89.23
2023-05-24T08:01:41.192Z,89.04
2023-05-24T08:02:45.687Z,88.83
2023-05-24T08:03:50.052Z,88.76
2023-05-24T08:04:54.339Z,88.71
2023-05-24T08:06:12.712Z,88.67
2023-05-24T08:07:15.660Z,88.67
2023-05-24T08:08:19.835Z,88.67
2023-05-24T08:09:24.312Z,88.75
2023-05-24T08:10:28.536Z,88.74
2023-05-24T08:11:32.947Z,88.88
2023-05-24T08:12:37.380Z,89.05
2023-05-24T08:13:41.675Z,89.14
2023-05-24T08:14:46.114Z,88.98
2023-05-24T08:15:50.413Z,88.50
2023-05-24T08:16:54.857Z,88.29
2023-05-24T08:17:59.177Z,87.92
2023-05-24T08:19:03.531Z,87.39
2023-05-24T08:20:07.880Z,87.08
2023-05-24T08:21:12.150Z,86.96
2023-05-24T08:22:16.494Z,87.21
2023-05-24T08:23:20.798Z,87.66
2023-05-24T08:24:25.150Z,88.18
2023-05-24T08:25:29.664Z,88.66
2023-05-24T08:26:34.011Z,88.97
2023-05-24T08:27:38.380Z,89.15
2023-05-24T08:28:42.777Z,89.07
2023-05-24T08:29:47.085Z,88.96
2023-05-24T08:30:51.541Z,88.93
2023-05-24T08:31:55.882Z,88.75
2023-05-24T08:33:00.243Z,88.63
2023-05-24T08:34:04.494Z,88.36
2023-05-24T08:35:20.305Z,87.89
2023-05-24T08:36:13.242Z,87.37
2023-05-24T08:37:17.587Z,87.13
2023-05-24T08:38:21.974Z,87.15
2023-05-24T08:39:26.350Z,87.22
2023-05-24T08:40:30.648Z,87.25
2023-05-24T08:41:35.098Z,87.29
2023-05-24T08:42:39.448Z,87.25
2023-05-24T08:43:43.777Z,87.12
2023-05-24T08:44:48.183Z,87.09
2023-05-24T08:45:52.520Z,87.10
2023-05-24T08:46:56.847Z,86.88
2023-05-24T08:48:01.457Z,86.64
2023-05-24T08:49:05.637Z,86.41
2023-05-24T08:50:10.029Z,85.98
2023-05-24T08:51:14.427Z,85.50
2023-05-24T08:52:18.757Z,85.44
2023-05-24T08:53:23.228Z,85.12
2023-05-24T08:54:27.505Z,84.63
2023-05-24T08:55:33.224Z,84.10
2023-05-24T08:56:36.292Z,83.72
2023-05-24T08:57:40.797Z,84.07
2023-05-24T08:58:44.973Z,83.96
2023-05-24T08:59:49.450Z,83.92
2023-05-24T09:00:53.781Z,84.39
2023-05-24T09:01:58.209Z,84.73
2023-05-24T09:03:02.596Z,84.94
2023-05-24T09:04:06.997Z,85.04
2023-05-24T09:05:11.416Z,85.28
2023-05-24T09:06:15.744Z,85.49
2023-05-24T09:07:20.109Z,85.30
2023-05-24T09:08:24.486Z,85.07
2023-05-24T09:09:29.012Z,84.67
2023-05-24T09:10:45.067Z,84.43
2023-05-24T09:11:39.463Z,83.94
2023-05-24T09:12:42.074Z,83.91
2023-05-24T09:13:46.478Z,83.56
2023-05-24T09:14:50.921Z,83.73
2023-05-24T09:15:55.360Z,83.04
2023-05-24T09:16:59.662Z,82.14
2023-05-24T09:18:04.143Z,81.15
2023-05-24T09:19:08.475Z,80.28
2023-05-24T09:20:12.958Z,80.56
2023-05-24T09:21:17.289Z,80.48
2023-05-24T09:22:21.572Z,80.62
2023-05-24T09:23:25.956Z,80.39
2023-05-24T09:24:30.288Z,80.35
2023-05-24T09:25:34.712Z,80.69
2023-05-24T09:26:39.183Z,80.82
2023-05-24T09:27:43.617Z,81.36
2023-05-24T09:29:02.028Z,81.86
2023-05-24T09:30:05.188Z,82.34
2023-05-24T09:31:09.566Z,82.52
2023-05-24T09:32:13.852Z,82.51
2023-05-24T09:33:18.292Z,82.33
2023-05-24T09:34:22.740Z,82.26
2023-05-24T09:35:27.144Z,82.27
2023-05-24T09:36:31.517Z,82.34
2023-05-24T09:37:35.903Z,82.30
2023-05-24T09:38:40.354Z,82.06
2023-05-24T09:39:44.740Z,81.99
2023-05-24T09:40:49.199Z,81.75
2023-05-24T09:41:53.583Z,81.80
2023-05-24T09:42:58.006Z,81.28
2023-05-24T09:44:02.433Z,80.74
2023-05-24T09:45:06.812Z,80.99
2023-05-24T09:46:11.223Z,80.83
2023-05-24T09:47:29.622Z,80.29
2023-05-24T09:48:33.028Z,79.60
2023-05-24T09:49:37.289Z,79.22
2023-05-24T09:50:41.852Z,79.36
2023-05-24T09:51:46.211Z,79.79
2023-05-24T09:52:50.575Z,79.65
2023-05-24T09:53:55.042Z,79.02
2023-05-24T09:54:59.353Z,78.37
2023-05-24T09:56:03.786Z,77.94
2023-05-24T09:57:08.092Z,78.25
2023-05-24T09:58:12.541Z,78.60
2023-05-24T09:59:16.973Z,78.86
2023-05-24T10:00:21.374Z,78.95
2023-05-24T10:01:25.826Z,78.76
2023-05-24T10:02:41.313Z,78.75
2023-05-24T10:03:34.515Z,78.11
2023-05-24T10:04:38.891Z,78.42
2023-05-24T10:05:43.162Z,78.61
2023-05-24T10:06:50.683Z,78.25
2023-05-24T10:07:54.114Z,78.26
2023-05-24T10:08:58.565Z,78.41
2023-05-24T10:10:05.301Z,78.12
2023-05-24T10:11:07.365Z,77.28
2023-05-24T10:12:11.828Z,77.27
2023-05-24T10:13:16.225Z,77.33
2023-05-24T10:14:20.615Z,77.48
2023-05-24T10:15:25.087Z,76.75
2023-05-24T10:16:29.617Z,76.13
2023-05-24T10:17:33.992Z,76.00
2023-05-24T10:18:38.345Z,75.93
2023-05-24T10:19:42.733Z,75.93
2023-05-24T10:20:47.563Z,75.98
2023-05-24T10:21:51.614Z,76.24
2023-05-24T10:22:55.921Z,76.27
2023-05-24T10:24:00.418Z,76.42
2023-05-24T10:25:04.812Z,76.48
2023-05-24T10:26:09.161Z,75.06
2023-05-24T10:27:13.585Z,74.89
2023-05-24T10:28:17.905Z,74.58
2023-05-24T10:29:22.276Z,74.12
2023-05-24T10:30:26.693Z,74.38
2023-05-24T10:31:31.036Z,73.82
2023-05-24T10:32:35.432Z,73.64
2023-05-24T10:33:39.758Z,73.88
2023-05-24T10:34:44.256Z,73.47
2023-05-24T10:35:51.566Z,73.62
2023-05-24T10:36:55.009Z,73.76
2023-05-24T10:37:59.327Z,72.93
2023-05-24T10:39:03.764Z,73.32
2023-05-24T10:40:08.151Z,73.11
2023-05-24T10:41:12.471Z,74.01
2023-05-24T10:42:16.879Z,74.71
2023-05-24T10:43:21.222Z,75.24
2023-05-24T10:44:25.604Z,75.46
2023-05-24T10:45:30.000Z,75.37
2023-05-24T10:46:34.526Z,75.12
2023-05-24T10:47:39.281Z,73.71
2023-05-24T10:48:43.281Z,73.30
2023-05-24T10:49:47.625Z,72.63
2023-05-24T10:50:52.080Z,72.60
2023-05-24T10:51:59.313Z,72.43
2023-05-24T10:53:02.865Z,72.72
2023-05-24T10:54:09.001Z,72.36
2023-05-24T10:55:25.772Z,72.47
2023-05-24T10:56:28.941Z,72.75
2023-05-24T10:57:39.301Z,72.52
2023-05-24T10:58:42.512Z,72.78
2023-05-24T10:59:46.853Z,72.25
2023-05-24T11:00:57.263Z,72.53
2023-05-24T11:02:14.680Z,72.16
2023-05-24T11:03:17.728Z,72.17
2023-05-24T11:04:28.073Z,71.81
2023-05-24T11:05:31.155Z,72.22
2023-05-24T11:06:35.473Z,72.79
2023-05-24T11:09:06.874Z,72.90
2023-05-24T11:10:11.355Z,72.88
2023-05-24T11:11:25.522Z,72.71
2023-05-24T11:12:19.931Z,72.53
2023-05-24T11:13:24.358Z,72.56
2023-05-24T11:14:28.705Z,72.58
2023-05-24T11:15:33.142Z,73.26
2023-05-24T11:16:38.438Z,73.91
2023-05-24T11:17:43.584Z,74.20
2023-05-24T11:18:46.238Z,74.09
2023-05-24T11:19:50.597Z,73.17
2023-05-24T11:20:55.146Z,72.35
2023-05-24T11:21:59.487Z,72.29
2023-05-24T11:23:03.809Z,71.73
2023-05-24T11:24:08.160Z,71.29
2023-05-24T11:25:12.570Z,71.94
2023-05-24T11:26:16.939Z,72.44
2023-05-24T11:27:21.389Z,72.83
2023-05-24T11:28:25.928Z,72.54
2023-05-24T11:29:30.184Z,72.86
2023-05-24T11:30:34.638Z,72.97
2023-05-24T11:31:42.376Z,72.90
2023-05-24T11:32:43.472Z,72.65
2023-05-24T11:33:47.807Z,72.33
2023-05-24T11:34:52.136Z,72.55
2023-05-24T11:35:56.575Z,72.08
2023-05-24T11:37:01.014Z,72.00
2023-05-24T11:38:19.575Z,72.39
2023-05-24T11:39:22.936Z,72.59
2023-05-24T11:40:27.224Z,71.61
2023-05-24T11:41:31.764Z,71.52
2023-05-24T11:42:36.037Z,70.08
2023-05-24T11:43:40.474Z,70.53
2023-05-24T11:44:44.842Z,71.73
2023-05-24T11:45:49.467Z,71.54
2023-05-24T11:46:53.703Z,69.01
2023-05-24T11:47:58.243Z,68.74
2023-05-24T11:49:16.690Z,70.09
2023-05-24T11:50:19.927Z,70.84
2023-05-24T11:51:24.324Z,71.30
2023-05-24T11:52:28.751Z,70.82
2023-05-24T11:53:33.167Z,70.28
2023-05-24T11:54:37.597Z,67.98
2023-05-24T11:55:42.298Z,67.42
2023-05-24T11:56:46.511Z,68.43
2023-05-24T11:58:04.913Z,68.08
2023-05-24T11:59:08.182Z,69.02
2023-05-24T12:00:12.496Z,69.33
2023-05-24T12:01:16.972Z,69.14
2023-05-24T12:02:21.368Z,66.35
2023-05-24T12:03:26.061Z,63.32
2023-05-24T12:04:36.334Z,63.30
2023-05-24T12:05:39.370Z,64.55
2023-05-24T12:06:43.830Z,65.84
2023-05-24T12:07:48.278Z,64.62
2023-05-24T12:08:52.757Z,64.95
2023-05-24T12:09:57.107Z,62.54
2023-05-24T12:11:01.510Z,60.64
2023-05-24T12:13:34.368Z,65.17
2023-05-24T12:14:38.398Z,63.06
2023-05-24T12:15:42.817Z,62.43
2023-05-24T12:16:47.164Z,64.38
2023-05-24T12:19:31.369Z,64.67
2023-05-24T12:20:23.566Z,64.58
2023-05-24T12:21:41.951Z,64.13
2023-05-24T12:22:45.217Z,63.87
2023-05-24T12:23:52.561Z,64.79
2023-05-24T12:24:56.178Z,64.86
2023-05-24T12:26:03.621Z,64.47
2023-05-24T12:27:07.162Z,64.32
2023-05-24T12:28:11.542Z,64.29
2023-05-24T12:29:15.926Z,62.58
2023-05-24T12:30:20.421Z,61.87
2023-05-24T12:31:25.003Z,61.88
2023-05-24T12:32:43.480Z,62.58
2023-05-24T12:34:00.934Z,63.34
2023-05-24T12:35:10.189Z,63.74
2023-05-24T12:36:16.593Z,63.87
2023-05-24T12:37:19.725Z,63.59
2023-05-24T12:38:24.130Z,63.41
2023-05-24T12:39:43.507Z,63.54
2023-05-24T12:40:51.880Z,63.12
2023-05-24T12:41:50.030Z,63.91
2023-05-24T12:42:54.341Z,64.06
2023-05-24T12:44:12.994Z,63.38
2023-05-24T12:45:16.201Z,62.39
2023-05-24T12:46:20.554Z,63.47
2023-05-24T12:47:25.050Z,64.22
2023-05-24T12:48:29.281Z,64.67
2023-05-24T12:49:33.652Z,65.17
2023-05-24T12:50:38.053Z,64.58
2023-05-24T12:51:42.553Z,65.05
2023-05-24T12:52:47.094Z,65.37
2023-05-24T12:53:51.482Z,65.30
2023-05-24T12:54:56.007Z,64.97
2023-05-24T12:56:00.445Z,65.20
2023-05-24T12:57:04.943Z,64.86
2023-05-24T12:58:09.260Z,63.13
2023-05-24T13:00:41.116Z,60.47
2023-05-24T13:01:48.398Z,60.10
2023-05-24T13:03:05.964Z,60.69
2023-05-24T13:04:09.261Z,62.27
2023-05-24T13:05:13.922Z,63.24
2023-05-24T13:06:18.216Z,61.47
2023-05-24T13:07:22.617Z,60.85
2023-05-24T13:08:32.950Z,61.38
2023-05-24T13:09:35.999Z,62.05
2023-05-24T13:10:46.358Z,62.86
2023-05-24T13:11:52.811Z,63.81
2023-05-24T13:12:55.938Z,63.39
2023-05-24T13:14:00.380Z,62.30
2023-05-24T13:15:04.714Z,61.96
2023-05-24T13:16:09.263Z,61.58
2023-05-24T13:17:13.717Z,62.17
2023-05-24T13:18:18.118Z,63.16
2023-05-24T13:19:22.512Z,63.64
2023-05-24T13:20:26.980Z,64.24
2023-05-24T13:22:58.810Z,64.43
2023-05-24T13:24:03.066Z,63.99
2023-05-24T13:25:07.418Z,64.42
2023-05-24T13:26:11.821Z,64.92
2023-05-24T13:27:16.291Z,64.66
2023-05-24T13:28:20.746Z,63.80
2023-05-24T13:30:29.486Z,64.24
2023-05-24T13:31:34.167Z,64.83
2023-05-24T13:32:40.452Z,64.50
2023-05-24T13:33:42.721Z,64.64
2023-05-24T13:34:47.112Z,64.96
2023-05-24T13:35:51.541Z,64.66
2023-05-24T13:36:56.000Z,64.93
2023-05-24T13:38:06.399Z,64.82
2023-05-24T13:40:19.802Z,64.92
2023-05-24T13:41:22.973Z,64.81
2023-05-24T13:42:27.484Z,64.73
2023-05-24T13:43:31.710Z,64.95
2023-05-24T13:44:36.086Z,65.34
2023-05-24T13:45:54.579Z,65.74
2023-05-24T13:46:57.730Z,65.51
2023-05-24T13:48:02.082Z,64.98
2023-05-24T13:49:06.521Z,64.18
2023-05-24T13:50:10.940Z,63.97
2023-05-24T13:51:15.395Z,64.41
2023-05-24T13:52:19.834Z,64.40
2023-05-24T13:53:24.278Z,64.95
2023-05-24T13:54:28.628Z,64.96
2023-05-24T13:55:33.084Z,65.29
2023-05-24T13:56:37.444Z,65.72
2023-05-24T13:57:50.570Z,66.08
2023-05-24T13:58:47.655Z,66.33
2023-05-24T13:59:51.655Z,66.37
2023-05-24T14:00:55.988Z,66.11
2023-05-24T14:02:00.537Z,65.71
2023-05-24T14:03:04.784Z,66.03
2023-05-24T14:04:09.119Z,66.63
2023-05-24T14:05:24.833Z,66.89
2023-05-24T14:06:18.018Z,67.09
2023-05-24T14:07:22.429Z,66.73